LiveATC.Net - Listen to live air traffic control over the Internet!


ICAO: 06C  IATA: 06C   Airport: Schaumburg Regional Airport
City: Chicago/Schaumburg   State/Province: Illinois
Country: United States   Continent: North America
K06C METAR Weather: K06C 140655Z AUTO 21007KT 5SM SCT012 BKN090 OVC110 20/19 A3009 RMK AO2 P0015 T01950187
06C ADS-B Flight Tracking  (ADSBExchange)
06C Flight Activity (FlightAware)
06C Airport Info   (iFlightPlanner)
06C VFR Sectional Chart   (iFlightPlanner) 
06C IFR Low Altitude Chart   (iFlightPlanner) 
06C IFR High Altitude Chart   (iFlightPlanner) 

06C CTAF
Feed Status: UP   Listeners: 0
Listen in your browser - HTML5 player (in browser, HTML5)
Click here to listen with your own player (launches your MP3 player)
Archive Access: 06C CTAF
FacilityFrequency
Schaumburg CTAF123.000

NOTICE

Unauthorized use prohibited. See LiveATC.net Terms of Service


Airport/ARTCC Code
Frequency Search
(e.g., 124.400, 128.75)
Site-wide search
 


Browse Feeds
Top 50 Feeds
HF Oceanic Feeds
Coverage Map
Bad Weather Areas

LiveATC FAQ

Increase Coverage

Contact LiveATC.net
Press Inquiries

LiveATC on iPhone
LiveATC on Android

LiveATC Mobile
(Mobile browser)

ATC Audio Archives
Interesting Recordings

LiveATC Forums


Home Page
About LiveATC.net


Terms of Use
Privacy Policy

AIRMETs/SIGMETs

FAA Airport Status
NAS Status
Arrival Demand


Server Software By:
Icecast.org
Liquidsoap